Details for United Airlines at KIAH




Go Back


Latest METAR
Local Time

KIAH 150453Z 17006KT 10SM FEW020 FEW250 28/24 A2998 RMK AO2 SLP150 T02780244
15/08/2018, 00:20:15

Description
Results
United Airlines Logo
Number of Pilots based at KIAH
0 Pilots Based here
Number of United Airlines Flights Departed from KIAH
4 Flights Departed
Number of United Airlines Flights Arrived at KIAH
3 Flights Arrived
Number of United Airlines Schedules Departing from KIAH
692 Schedules
Number of United Airlines Schedules Arriving at KIAH
740 Schedules
Number of United Airlines Schedules Departing from KIAH availible today
437 Schedules Today
Number of United Airlines Schedules Arriving at KIAH availible today
448 Schedules Today
Average Landing Rate at KIAH
-274 fpm
United Airlines Average Landing Rate at KIAH
-274 fpm
Total Fuel Purchased at KIAH by United Airlines
31,523.76 kgs / 69,497.28 lbs

Pilots Based at KIAH


Pilot ID
Pilot Name
Pilot Rank
No. of Flights
No. of Flying Hours
There are no pilots assigned to this hub!   Will you be the first?
Content